Latest Weather Observations for Minlaton Airport

IDS60801

Issued at 6:32 am CDT Monday 26 January 2015 (issued every 30 minutes, with the page automatically refreshed every 10 minutes)

About weather observations | Map of weather stations | Latest weather observations for SA | Other Formats
Station Details ID: 022031 Name: MINLATON AERO Lat: -34.75 Lon: 137.53 Height: 32.0 m
Data from the previous 72 hours. | See also: Recent months at Minlaton Airport
Date/Time
CDT
Temp
°C
App
Temp
°C
Dew
Point
Rel
Hum
%
Delta-T
°C
Wind Press
QNH
hPa
Press
MSL
hPa
Rain
since 9 am
mm
Dir
 
Spd
km/h
Gust
km/h
Spd
kts
Gust
kts
26/06:30am 14.1 11.3 8.7 70 2.7 S 13 15 7 8 1017.6 1017.5 0.0
26/06:00am 14.0 11.9 8.2 68 2.9 SSE 9 13 5 7 1017.3 1017.2 0.0
26/05:30am 14.0 12.5 8.6 70 2.7 SSW 6 7 3 4 1017.1 1017.0 0.0
26/05:00am 14.1 12.4 8.5 69 2.8 S 7 7 4 4 1016.9 1016.8 0.0
26/04:30am 14.5 12.4 8.2 66 3.2 S 9 11 5 6 1016.5 1016.4 0.0
26/04:00am 14.4 12.8 8.6 68 2.9 SW 7 9 4 5 1016.5 1016.4 0.0
26/03:30am 14.4 12.6 9.6 73 2.5 SSW 9 11 5 6 1016.6 1016.5 0.0
26/03:00am 14.8 10.9 9.6 71 2.7 S 20 26 11 14 1016.6 1016.5 0.0
26/02:30am 15.6 12.9 8.8 64 3.5 S 13 17 7 9 1016.4 1016.3 0.0
26/02:00am 15.2 12.9 9.1 67 3.1 S 11 15 6 8 1016.5 1016.4 0.0
26/01:30am 14.9 11.8 8.8 67 3.1 S 15 19 8 10 1016.5 1016.4 0.0
26/01:00am 15.8 11.8 8.1 60 3.9 S 19 24 10 13 1016.8 1016.7 0.0
26/12:30am 16.2 11.3 8.4 60 4.0 S 24 32 13 17 1016.8 1016.7 0.0
26/12:00am 16.2 11.9 7.9 58 4.2 S 20 26 11 14 1016.9 1016.8 0.0
 
Date/Time
CDT
Temp
°C
App
Temp
°C
Dew
Point
Rel
Hum
%
Delta-T
°C
Wind Press
QNH
hPa
Press
MSL
hPa
Rain
since 9 am
mm
Dir
 
Spd
km/h
Gust
km/h
Spd
kts
Gust
kts
25/11:30pm 16.4 11.6 7.3 55 4.5 S 22 28 12 15 1016.9 1016.8 0.0
25/11:00pm 16.6 12.2 7.3 54 4.6 S 20 30 11 16 1016.9 1016.8 0.0
25/10:30pm 14.5 11.5 7.5 63 3.5 SSE 13 17 7 9 1016.9 1016.8 0.0
25/10:00pm 15.4 12.1 8.2 62 3.6 SSW 15 20 8 11 1016.5 1016.4 0.0
25/09:30pm 15.6 11.9 8.1 61 3.8 SSW 17 22 9 12 1016.1 1016.0 0.0
25/09:00pm 16.1 10.7 8.1 59 4.0 SSW 26 32 14 17 1015.8 1015.7 0.0
25/08:30pm 16.7 11.5 7.4 54 4.6 SSW 24 32 13 17 1015.6 1015.5 0.0
25/08:00pm 18.3 11.6 7.4 49 5.5 SSW 32 39 17 21 1015.3 1015.2 0.0
25/07:30pm 19.3 12.9 5.0 39 6.9 SSW 28 35 15 19 1014.9 1014.8 0.0
25/07:00pm 20.2 13.5 3.4 33 8.0 SSW 28 37 15 20 1014.6 1014.5 0.0
25/06:30pm 21.1 14.1 4.2 33 8.2 SW 30 44 16 24 1014.2 1014.1 0.0
25/06:00pm 21.4 14.4 4.0 32 8.4 SW 30 41 16 22 1014.2 1014.1 0.0
25/05:30pm 21.7 14.2 4.7 33 8.3 SW 33 44 18 24 1014.2 1014.1 0.0
25/05:00pm 21.8 14.3 4.4 32 8.5 SW 33 48 18 26 1014.1 1014.0 0.0
25/04:30pm 21.5 13.8 5.4 35 8.0 SSW 35 44 19 24 1014.1 1014.0 0.0
25/04:01pm 21.0 13.8 5.8 37 7.6 SW 33 52 18 28 1014.1 1014.0 0.0
25/04:00pm 21.1 14.1 5.9 37 7.6 SW 32 48 17 26 1014.2 1014.1 0.0
25/03:30pm 23.1 16.0 5.5 32 8.9 SW 32 41 17 22 1014.1 1014.0 0.0
25/03:00pm 22.5 15.1 5.0 32 8.7 SW 33 52 18 28 1014.4 1014.3 0.0
25/02:58pm 22.3 15.1 4.8 32 8.6 SW 32 52 17 28 1014.4 1014.3 0.0
25/02:55pm 22.2 15.3 4.7 32 8.6 SSW 30 52 16 28 1014.4 1014.3 0.0
25/02:54pm 22.5 15.8 5.4 33 8.6 SSW 30 52 16 28 1014.3 1014.2 0.0
25/02:30pm 22.9 16.2 5.8 33 8.6 SW 30 44 16 24 1014.4 1014.3 0.0
25/02:00pm 22.7 15.7 6.0 34 8.5 SW 32 46 17 25 1014.6 1014.5 0.0
25/01:32pm 21.0 14.3 5.8 37 7.6 SW 30 48 16 26 1014.6 1014.5 0.0
25/01:30pm 21.8 15.4 5.3 34 8.2 SW 28 44 15 24 1014.6 1014.5 0.0
25/01:07pm 20.9 13.8 5.3 36 7.7 SW 32 50 17 27 1014.7 1014.6 0.0
25/01:00pm 21.5 14.5 6.2 37 7.7 SW 32 41 17 22 1014.9 1014.8 0.0
25/12:30pm 20.1 13.0 5.7 39 7.1 WSW 32 43 17 23 1015.0 1014.9 0.0
25/12:00pm 19.9 15.0 5.2 38 7.2 WSW 20 33 11 18 1015.1 1015.0 0.0
25/11:30am 20.4 15.1 4.8 36 7.6 SW 22 35 12 19 1015.1 1015.0 0.0
25/11:00am 18.2 12.3 5.8 44 6.1 SW 26 37 14 20 1015.2 1015.1 0.0
25/10:30am 19.3 13.5 6.1 42 6.5 SW 26 39 14 21 1014.8 1014.7 0.0
25/10:00am 17.9 12.6 5.2 43 6.1 WSW 22 33 12 18 1014.7 1014.6 0.0
25/09:30am 17.4 11.3 5.0 44 5.9 SW 26 35 14 19 1014.5 1014.4 0.0
25/09:00am 17.4 12.1 6.6 49 5.3 SSW 24 33 13 18 1014.2 1014.1 0.0
25/08:30am 17.1 11.8 6.6 50 5.2 SSW 24 32 13 17 1013.8 1013.7 0.0
25/08:00am 16.3 11.6 6.2 51 4.9 SSW 20 30 11 16 1013.4 1013.3 0.0
25/07:30am 13.4 10.5 6.7 64 3.2 SSW 11 13 6 7 1013.1 1013.0 0.0
25/07:00am 11.4 8.0 5.9 69 2.6 SSW 13 15 7 8 1012.6 1012.5 0.0
25/06:30am 10.6 6.8 5.6 71 2.3 S 15 17 8 9 1012.1 1012.0 0.0
25/06:00am 10.3 6.3 6.5 77 1.8 S 17 19 9 10 1011.7 1011.6 0.0
25/05:30am 10.9 7.3 6.6 75 2.0 S 15 17 8 9 1011.3 1011.2 0.0
25/05:00am 11.7 8.2 7.0 73 2.2 S 15 17 8 9 1011.2 1011.1 0.0
25/04:30am 13.6 10.0 8.4 71 2.6 SSW 17 20 9 11 1011.1 1011.0 0.0
25/04:00am 14.0 10.0 8.4 69 2.8 SSW 19 22 10 12 1010.8 1010.7 0.0
25/03:30am 14.9 9.9 7.9 63 3.5 SW 24 30 13 16 1010.6 1010.5 0.0
25/03:00am 14.6 9.8 7.2 61 3.6 SW 22 30 12 16 1010.6 1010.5 0.0
25/02:30am 15.2 10.3 8.4 64 3.4 SW 24 32 13 17 1010.6 1010.5 0.0
25/02:00am 15.9 10.2 8.4 61 3.8 SW 28 37 15 20 1010.7 1010.6 0.0
25/01:30am 16.0 9.5 8.0 59 4.0 SW 32 43 17 23 1010.8 1010.7 0.0
25/01:00am 15.8 11.9 10.8 72 2.7 SW 22 30 12 16 1010.8 1010.7 0.0
25/12:30am 16.5 11.6 11.2 71 2.9 SW 28 35 15 19 1010.7 1010.6 0.0
25/12:00am 16.4 12.2 11.1 71 2.9 SW 24 32 13 17 1010.7 1010.6 0.0
 
Date/Time
CDT
Temp
°C
App
Temp
°C
Dew
Point
Rel
Hum
%
Delta-T
°C
Wind Press
QNH
hPa
Press
MSL
hPa
Rain
since 9 am
mm
Dir
 
Spd
km/h
Gust
km/h
Spd
kts
Gust
kts
24/11:30pm 16.5 10.8 11.2 71 2.9 SW 32 41 17 22 1010.7 1010.6 0.0
24/11:00pm 17.4 12.4 12.1 71 2.9 SW 30 39 16 21 1010.4 1010.3 0.0
24/10:30pm 17.8 12.1 11.8 68 3.3 SW 33 43 18 23 1009.9 1009.8 0.0
24/10:00pm 18.2 13.0 13.3 73 2.8 SW 33 44 18 24 1009.8 1009.7 0.0
24/09:30pm 18.8 13.7 13.2 70 3.2 WSW 32 46 17 25 1009.3 1009.2 0.0
24/09:00pm 18.5 12.7 11.6 64 3.8 WSW 33 44 18 24 1009.0 1008.9 0.0
24/08:30pm 19.1 11.9 13.1 68 3.4 WSW 43 56 23 30 1008.6 1008.5 0.0
24/08:00pm 20.2 13.0 11.9 59 4.6 WSW 41 54 22 29 1008.3 1008.2 0.0
24/07:30pm 21.6 15.2 13.2 59 4.8 WSW 39 52 21 28 1007.8 1007.7 0.0
24/07:00pm 21.5 15.7 12.6 57 5.1 W 35 44 19 24 1007.6 1007.5 0.0
24/06:30pm 22.3 16.7 13.4 57 5.2 WSW 35 46 19 25 1007.5 1007.4 0.0
24/06:00pm 22.8 17.2 13.3 55 5.5 WSW 35 44 19 24 1007.5 1007.4 0.0
24/05:30pm 23.0 17.5 12.0 50 6.2 WSW 32 39 17 21 1007.4 1007.3 0.0
24/05:00pm 24.3 18.6 11.3 44 7.3 W 32 41 17 22 1007.5 1007.4 0.0
24/04:30pm 23.3 18.0 11.4 47 6.7 W 30 39 16 21 1007.6 1007.5 0.0
24/04:00pm 23.4 18.2 11.5 47 6.7 W 30 39 16 21 1007.7 1007.6 0.0
24/03:30pm 23.7 20.0 12.7 50 6.3 W 24 33 13 18 1008.0 1007.9 0.0
24/03:00pm 23.2 19.9 12.8 52 6.0 W 22 32 12 17 1008.1 1008.0 0.0
24/02:30pm 22.3 18.3 11.7 51 6.0 W 24 33 13 18 1008.4 1008.3 0.0
24/02:00pm 23.2 18.9 11.9 49 6.4 WNW 26 39 14 21 1008.5 1008.4 0.0
24/01:30pm 22.8 17.6 11.5 49 6.3 W 30 39 16 21 1008.6 1008.5 0.0
24/01:00pm 21.9 17.4 11.3 51 5.9 WNW 26 39 14 21 1008.6 1008.5 0.0
24/12:30pm 22.0 17.9 11.4 51 5.9 WNW 24 37 13 20 1008.6 1008.5 0.0
24/12:00pm 21.7 16.7 11.1 51 5.9 W 28 39 15 21 1008.5 1008.4 0.0
24/11:30am 21.4 16.6 10.3 49 6.1 W 26 35 14 19 1008.8 1008.7 0.0
24/11:00am 20.7 16.0 10.5 52 5.6 W 26 37 14 20 1008.9 1008.8 0.0
24/10:30am 21.0 16.5 9.9 49 6.0 W 24 32 13 17 1008.9 1008.8 0.0
24/10:00am 20.6 16.8 9.8 50 5.8 W 20 33 11 18 1009.1 1009.0 0.0
24/09:30am 20.7 17.5 11.1 54 5.3 W 19 24 10 13 1009.2 1009.1 0.0
24/09:00am 20.1 17.4 10.5 54 5.2 WSW 15 24 8 13 1008.9 1008.8 0.0
24/08:30am 18.7 15.1 10.0 57 4.6 SW 19 22 10 12 1008.8 1008.7 0.0
24/08:00am 18.1 14.7 10.5 61 4.1 SW 19 26 10 14 1008.9 1008.8 0.0
24/07:30am 17.8 14.7 10.4 62 4.0 SW 17 24 9 13 1008.5 1008.4 0.0
24/07:00am 16.7 13.7 10.8 68 3.2 SW 17 20 9 11 1008.3 1008.2 0.0
24/06:30am 16.7 13.2 11.0 69 3.1 SW 20 24 11 13 1008.2 1008.1 0.0
24/06:00am 17.1 13.8 11.6 70 3.0 SW 20 28 11 15 1008.3 1008.2 0.0
24/05:30am 17.0 13.9 11.7 71 2.9 SW 19 26 10 14 1008.2 1008.1 0.0
24/05:00am 16.9 14.3 12.0 73 2.7 WSW 17 20 9 11 1008.1 1008.0 0.0
24/04:30am 15.3 14.2 12.1 81 1.7 SSW 9 13 5 7 1008.2 1008.1 0.0
24/04:00am 12.9 11.8 10.6 86 1.2 S 7 9 4 5 1008.5 1008.4 0.0
24/03:30am 13.6 12.3 11.1 85 1.3 S 9 11 5 6 1008.6 1008.5 0.0
24/03:00am 14.1 12.8 11.4 84 1.4 S 9 11 5 6 1008.7 1008.6 0.0
24/02:30am 15.3 13.5 12.2 82 1.7 SW 13 15 7 8 1008.9 1008.8 0.0
24/02:00am 16.1 14.7 12.3 78 2.1 SW 11 13 6 7 1009.1 1009.0 0.0
24/01:30am 16.4 14.8 11.6 73 2.6 SW 11 13 6 7 1009.3 1009.2 0.0
24/01:00am 16.6 14.9 12.4 76 2.3 SW 13 15 7 8 1009.7 1009.6 0.0
24/12:30am 16.2 15.3 12.6 79 2.0 S 9 11 5 6 1009.6 1009.5 0.0
24/12:00am 14.8 13.4 10.8 77 2.1 SSW 9 11 5 6 1009.9 1009.8 0.0
 
Date/Time
CDT
Temp
°C
App
Temp
°C
Dew
Point
Rel
Hum
%
Delta-T
°C
Wind Press
QNH
hPa
Press
MSL
hPa
Rain
since 9 am
mm
Dir
 
Spd
km/h
Gust
km/h
Spd
kts
Gust
kts
23/11:30pm 16.2 14.7 12.0 76 2.3 SSW 11 13 6 7 1009.9 1009.8 0.0
23/11:00pm 15.9 14.0 11.9 77 2.2 SSW 13 13 7 7 1010.0 1009.9 0.0
23/10:30pm 16.2 14.2 11.4 73 2.6 SSW 13 15 7 8 1009.9 1009.8 0.0
23/10:00pm 16.9 14.0 11.0 68 3.2 S 17 22 9 12 1009.8 1009.7 0.0
23/09:30pm 17.6 13.9 10.0 61 4.0 S 20 24 11 13 1009.7 1009.6 0.0
23/09:00pm 18.1 14.9 10.0 59 4.3 SSW 17 22 9 12 1009.6 1009.5 0.0
23/08:30pm 19.2 15.7 11.0 59 4.5 SW 20 30 11 16 1009.4 1009.3 0.0
23/08:00pm 20.5 15.3 11.7 57 4.9 SW 30 39 16 21 1008.8 1008.7 0.0
23/07:30pm 21.4 16.7 13.1 59 4.8 WSW 30 37 16 20 1008.5 1008.4 0.0
23/07:00pm 22.0 16.5 12.5 54 5.4 WSW 33 43 18 23 1008.2 1008.1 0.0
23/06:30pm 22.2 16.1 13.0 56 5.3 WSW 37 46 20 25 1008.2 1008.1 0.0
23/06:00pm 22.5 16.3 12.7 54 5.6 W 37 46 20 25 1008.4 1008.3 0.0
23/05:30pm 22.6 16.1 12.8 54 5.6 W 39 48 21 26 1008.5 1008.4 0.0
23/05:00pm 23.3 16.2 12.3 50 6.3 W 41 52 22 28 1008.5 1008.4 0.0
23/04:30pm 23.6 16.9 12.3 49 6.5 W 39 48 21 26 1008.5 1008.4 0.0
23/04:00pm 23.7 17.2 11.7 47 6.8 W 37 46 20 25 1008.8 1008.7 0.0
23/03:30pm 23.6 17.6 12.0 48 6.6 W 35 43 19 23 1009.0 1008.9 0.0
23/03:00pm 23.6 18.1 12.0 48 6.6 W 32 43 17 23 1009.2 1009.1 0.0
23/02:30pm 23.9 18.4 11.9 47 6.8 W 32 39 17 21 1009.6 1009.5 0.0
23/02:00pm 23.5 18.8 11.9 48 6.6 W 28 35 15 19 1009.8 1009.7 0.0
23/01:30pm 24.6 19.4 9.0 37 8.5 SW 26 37 14 20 1009.9 1009.8 0.0
23/01:00pm 24.9 20.3 9.6 38 8.4 WSW 24 35 13 19 1010.1 1010.0 0.0
23/12:30pm 23.1 20.2 10.9 46 6.8 SW 17 24 9 13 1010.3 1010.2 0.0
23/12:00pm 22.1 19.3 11.2 50 6.1 SW 17 30 9 16 1010.5 1010.4 0.0
23/11:30am 22.6 18.8 12.3 52 5.9 SW 24 32 13 17 1010.4 1010.3 0.0
23/11:00am 22.1 19.1 12.4 54 5.5 SW 20 33 11 18 1010.4 1010.3 0.0
23/10:30am 21.0 17.6 12.4 58 4.9 SSW 22 32 12 17 1010.5 1010.4 0.0
23/10:00am 19.7 16.1 12.9 65 3.8 SSW 24 32 13 17 1010.6 1010.5 0.0
23/09:30am 18.8 15.8 14.9 78 2.3 S 24 33 13 18 1010.6 1010.5 0.0
23/09:00am 17.8 15.2 16.0 89 1.1 SSW 24 30 13 16 1010.5 1010.4 0.0
23/08:30am 17.0 13.6 15.9 93 0.6 SSW 28 37 15 20 1010.3 1010.2 0.0
23/08:00am 17.8 16.3 16.7 93 0.7 SW 20 30 11 16 1009.8 1009.7 0.0
23/07:30am 17.9 19.9 15.9 88 1.2 CALM 0 7 0 4 1009.5 1009.4 0.0
23/07:00am 16.2 16.7 15.1 93 0.6 SE 6 7 3 4 1009.2 1009.1 0.0

Other Formats:

Comma delimited format used in spreadsheet applications
http://www.bom.gov.au/fwo/IDS60801/IDS60801.95659.axf

JavaScript Object Notation format (JSON) in row-major order
http://www.bom.gov.au/fwo/IDS60801/IDS60801.95659.json